Evanston Uinta County Burns Field
KEVW : now visible

Airfield :











YOU CAN JOIN US ON...

 
LOGIN :

Register | Disclaimer

   EN    FR    IT 

 









Legend :    VFR   Marginal VFR   IFR   Intensive IFR   Very Intensive IFR
Visi :
Ceiling :
>= 8 km
>= 3000ft
5 to 8 km
1000 to 3000 ft
1500m to 5 km
500 to 1000 ft
800 to 1500m
200 to 500 ft
< 800m
< 200 ft
Symbols :   Thunderstorms  Fog  Heavy snow  Heavy precipitations  Wind > 20 kt







- Airport Elevation : 7143 ft


KEVW - Evanston Uinta County Burns Field

CURRENT METAR :
  • 220640Z AUTO 05003KT 1/2SM FG FEW003 BKN013 OVC027 00/M01 A2962 RMK AO2 SNE23 P0000 T00001006

EXPIRED METARs :
  • 220635Z AUTO 03003KT 1/2SM FG BKN015 OVC027 00/M01 A2962 RMK AO2 SNE23 P0000 T00001011
  • 220621Z AUTO 01004KT 1/2SM -SN FG VV011 00/M01 A2962 RMK AO2 P0000 T00001011
  • 220608Z AUTO 36003KT 1/2SM -SN FG VV008 00/M01 A2962 RMK AO2 P0000 T00001011
  • 220553Z AUTO 00000KT 3/4SM -SN BR VV006 00/M01 A2962 RMK AO2 SLP006 P0001 60044 T00001006 10061 20000 51002
  • 220535Z AUTO 00000KT 3/4SM -SN BR VV005 00/M01 A2963 RMK AO2 P0000 T00001006
  • 220524Z AUTO 00000KT 3/4SM -SN BR SCT003 OVC007 01/M01 A2963 RMK AO2 P0000 T00061006
  • 220453Z AUTO 30003KT 2SM -SN BR FEW006 OVC019 00/M01 A2962 RMK AO2 P0000 T00001006
  • 220419Z AUTO 24003KT 3/4SM -SN BR VV015 00/M01 A2963 RMK AO2 P0001 T00001006
  • 220401Z AUTO 00000KT 1SM -SN BR VV010 00/M01 A2963 RMK AO2 P0000 T00001006
  • 220353Z AUTO 00000KT 3/4SM -SN BR VV008 01/M01 A2963 RMK AO2 SLP010 P0018 T00061006

TAF KEVW
Valid from the 22 at 06:00 until the 23 at 06:00 UTC


220529Z 2206/2306 08004KT 1SM -SN BR BKN007
FM220800 08008KT P6SM VCSH SCT003 BKN020
FM221900 09012G22KT P6SM BKN060
KZLC FIR / North America



MET'MAP, your aeronautical weather chart ! - Copyright ORBIFLY December 2007 - Disclaimer

ORBIFLY MET'MAP TEAM :

Programming & Development : Alexandra Zaïnal
Concept & Development : Baudouin d'Aumeries
Co-Development & Prog : Marc-Olivier Méhu
Technical & hardware support : Manuel Goepfert

Contact : metmap@orbifly.com




SOURCES & CREDITS :

   NOAA       Earth
Advisory